createdAt,value
2018-06-24T00:01:42.223Z,7.30
2018-06-24T00:04:09.499Z,7.03
2018-06-24T00:06:36.915Z,7.47
2018-06-24T00:09:06.409Z,7.07
2018-06-24T00:11:33.660Z,7.47
2018-06-24T00:14:00.971Z,7.47
2018-06-24T00:16:28.251Z,7.17
2018-06-24T00:18:55.656Z,7.63
2018-06-24T00:21:22.932Z,7.73
2018-06-24T00:23:50.332Z,7.30
2018-06-24T00:26:17.879Z,7.47
2018-06-24T00:28:45.170Z,8.17
2018-06-24T00:31:12.418Z,7.70
2018-06-24T00:33:39.690Z,7.90
2018-06-24T00:36:06.988Z,7.73
2018-06-24T00:38:35.387Z,7.90
2018-06-24T00:41:02.695Z,8.13
2018-06-24T00:43:30.647Z,7.67
2018-06-24T00:45:58.079Z,8.73
2018-06-24T00:48:25.402Z,8.10
2018-06-24T00:50:52.808Z,8.33
2018-06-24T00:53:20.072Z,8.67
2018-06-24T00:55:47.383Z,8.93
2018-06-24T00:58:14.803Z,8.50
2018-06-24T01:00:42.131Z,8.80
2018-06-24T01:03:09.391Z,9.33
2018-06-24T01:05:36.711Z,9.53
2018-06-24T01:08:04.092Z,9.07
2018-06-24T01:10:31.372Z,9.57
2018-06-24T01:12:58.622Z,9.47
2018-06-24T01:15:25.915Z,9.17
2018-06-24T01:17:53.154Z,9.10
2018-06-24T01:20:20.479Z,10.07
2018-06-24T01:22:47.739Z,9.27
2018-06-24T01:25:14.996Z,10.20
2018-06-24T01:27:42.234Z,9.33
2018-06-24T01:30:09.524Z,9.43
2018-06-24T01:32:37.112Z,9.30
2018-06-24T01:35:04.397Z,9.90
2018-06-24T01:37:31.644Z,10.13
2018-06-24T01:39:58.936Z,9.43
2018-06-24T01:42:26.178Z,9.43
2018-06-24T01:44:53.456Z,10.23
2018-06-24T01:47:20.787Z,9.80
2018-06-24T01:49:48.172Z,9.50
2018-06-24T01:52:15.478Z,10.13
2018-06-24T01:54:42.779Z,9.97
2018-06-24T01:57:10.932Z,9.53
2018-06-24T01:59:38.166Z,9.70
2018-06-24T02:02:05.425Z,10.23
2018-06-24T02:04:32.671Z,10.53
2018-06-24T02:07:00.188Z,10.73
2018-06-24T02:09:27.525Z,10.10
2018-06-24T02:11:54.812Z,10.20
2018-06-24T02:14:22.439Z,10.93
2018-06-24T02:16:49.691Z,10.37
2018-06-24T02:19:16.934Z,10.20
2018-06-24T02:21:44.188Z,10.90
2018-06-24T02:24:11.432Z,10.13
2018-06-24T02:26:38.688Z,9.40
2018-06-24T02:29:06.519Z,10.50
2018-06-24T02:31:33.981Z,10.17
2018-06-24T02:34:01.896Z,10.27
2018-06-24T02:36:29.164Z,9.60
2018-06-24T02:38:56.458Z,9.93
2018-06-24T02:41:23.720Z,10.30
2018-06-24T02:43:51.019Z,10.43
2018-06-24T02:46:18.299Z,10.30
2018-06-24T02:48:45.542Z,10.10
2018-06-24T02:51:13.159Z,10.37
2018-06-24T02:53:40.551Z,10.27
2018-06-24T02:56:07.760Z,10.13
2018-06-24T02:58:35.065Z,10.40
2018-06-24T03:01:02.337Z,10.80
2018-06-24T03:03:29.582Z,10.43
2018-06-24T03:05:57.263Z,11.00
2018-06-24T03:08:24.503Z,11.00
2018-06-24T03:10:51.748Z,10.70
2018-06-24T03:13:19.043Z,11.00
2018-06-24T03:15:46.271Z,11.13
2018-06-24T03:18:13.684Z,11.00
2018-06-24T03:21:01.326Z,9.97
2018-06-24T03:23:28.627Z,12.00
2018-06-24T03:25:55.903Z,10.67
2018-06-24T03:28:23.168Z,11.03
2018-06-24T03:30:50.407Z,10.40
2018-06-24T03:33:17.623Z,10.83
2018-06-24T03:35:44.935Z,10.57
2018-06-24T03:38:12.226Z,10.47
2018-06-24T03:40:39.502Z,10.33
2018-06-24T03:43:06.735Z,10.80
2018-06-24T03:45:34.031Z,10.07
2018-06-24T03:48:01.268Z,9.97
2018-06-24T03:50:28.536Z,10.50
2018-06-24T03:52:55.819Z,10.27
2018-06-24T03:55:23.121Z,10.23
2018-06-24T03:57:50.374Z,10.43
2018-06-24T04:00:17.751Z,9.80
2018-06-24T04:02:44.992Z,10.57
2018-06-24T04:05:12.340Z,10.40
2018-06-24T04:07:39.616Z,10.77
2018-06-24T04:10:06.945Z,11.47
2018-06-24T04:12:34.211Z,10.60
2018-06-24T04:15:01.500Z,11.53
2018-06-24T04:17:28.839Z,10.57
2018-06-24T04:19:56.111Z,10.97
2018-06-24T04:22:23.645Z,10.77
2018-06-24T04:24:51.001Z,10.90
2018-06-24T04:27:18.267Z,11.03
2018-06-24T04:29:45.496Z,10.87
2018-06-24T04:32:12.728Z,10.10
2018-06-24T04:34:41.195Z,10.20
2018-06-24T04:37:08.519Z,10.23
2018-06-24T04:39:35.768Z,10.20
2018-06-24T04:42:03.064Z,9.80
2018-06-24T04:44:30.315Z,9.87
2018-06-24T04:46:57.566Z,9.67
2018-06-24T04:49:24.839Z,9.47
2018-06-24T04:51:52.093Z,9.70
2018-06-24T04:54:19.295Z,9.73
2018-06-24T04:56:46.878Z,9.17
2018-06-24T04:59:14.223Z,9.40
2018-06-24T05:01:41.493Z,9.07
2018-06-24T05:04:08.743Z,9.67
2018-06-24T05:06:36.111Z,8.47
2018-06-24T05:09:06.380Z,9.40
2018-06-24T05:11:33.709Z,9.40
2018-06-24T05:14:01.210Z,9.07
2018-06-24T05:16:28.552Z,9.00
2018-06-24T05:18:55.888Z,8.80
2018-06-24T05:21:23.143Z,8.73
2018-06-24T05:23:50.721Z,9.07
2018-06-24T05:26:18.267Z,8.43
2018-06-24T05:28:45.563Z,8.30
2018-06-24T05:31:12.796Z,8.43
2018-06-24T05:33:40.083Z,8.07
2018-06-24T05:36:07.371Z,8.17
2018-06-24T05:38:34.623Z,7.87
2018-06-24T05:41:01.977Z,8.73
2018-06-24T05:43:42.849Z,8.27
2018-06-24T05:46:10.994Z,8.07
2018-06-24T05:49:10.368Z,8.50
2018-06-24T05:51:37.848Z,7.90
2018-06-24T05:54:05.152Z,8.33
2018-06-24T05:56:32.401Z,7.50
2018-06-24T05:59:01.486Z,7.77
2018-06-24T06:01:28.806Z,7.30
2018-06-24T06:03:56.391Z,7.33
2018-06-24T06:06:23.724Z,7.30
2018-06-24T06:08:53.356Z,7.00
2018-06-24T06:11:20.676Z,6.73
2018-06-24T06:13:47.910Z,7.33
2018-06-24T06:16:15.227Z,7.00
2018-06-24T06:18:42.476Z,6.67
2018-06-24T06:21:09.734Z,7.13
2018-06-24T06:23:36.995Z,7.30
2018-06-24T06:26:04.300Z,6.73
2018-06-24T06:28:31.582Z,6.57
2018-06-24T06:30:58.879Z,6.40
2018-06-24T06:33:27.176Z,6.50
2018-06-24T06:35:55.084Z,6.90
2018-06-24T06:38:22.829Z,5.87
2018-06-24T06:40:50.192Z,6.47
2018-06-24T06:43:23.791Z,6.53
2018-06-24T06:45:51.343Z,6.17
2018-06-24T06:48:18.872Z,6.08
2018-06-24T06:58:26.127Z,5.53
2018-06-24T07:00:53.568Z,5.30
2018-06-24T07:03:20.820Z,5.15
2018-06-24T07:05:48.156Z,5.40
2018-06-24T07:08:15.439Z,4.83
2018-06-24T07:11:03.042Z,5.10
2018-06-24T07:13:31.512Z,4.60
2018-06-24T07:15:58.787Z,4.95
2018-06-24T07:18:26.132Z,4.80
2018-06-24T07:20:53.920Z,4.65
2018-06-24T07:23:21.374Z,4.10
2018-06-24T07:26:11.440Z,4.12
2018-06-24T07:28:41.624Z,3.90
2018-06-24T07:31:08.944Z,3.72
2018-06-24T07:33:36.348Z,3.47
2018-06-24T07:36:04.504Z,3.80
2018-06-24T07:38:32.056Z,3.75
2018-06-24T07:40:59.329Z,3.47
2018-06-24T07:43:38.855Z,3.25
2018-06-24T07:46:06.187Z,3.40
2018-06-24T07:48:33.512Z,3.40
2018-06-24T07:51:00.813Z,3.30
2018-06-24T07:53:28.108Z,3.15
2018-06-24T07:56:15.152Z,2.85
2018-06-24T07:58:42.678Z,2.50
2018-06-24T08:01:10.755Z,2.47
2018-06-24T08:03:43.428Z,2.90
2018-06-24T08:06:10.703Z,2.92
2018-06-24T08:08:38.025Z,2.70
2018-06-24T08:11:05.326Z,2.52
2018-06-24T08:13:32.564Z,2.95
2018-06-24T08:15:59.895Z,2.50
2018-06-24T08:18:27.160Z,2.60
2018-06-24T08:21:01.682Z,2.70
2018-06-24T08:23:28.991Z,2.45
2018-06-24T08:25:56.229Z,2.30
2018-06-24T08:28:23.823Z,2.30
2018-06-24T08:30:55.540Z,2.30
2018-06-24T08:33:22.895Z,2.00
2018-06-24T08:35:50.363Z,2.00
2018-06-24T08:38:17.743Z,2.15
2018-06-24T08:40:45.444Z,1.90
2018-06-24T08:43:12.671Z,2.05
2018-06-24T08:45:39.956Z,1.87
2018-06-24T08:48:07.280Z,1.60
2018-06-24T08:50:34.580Z,1.70
2018-06-24T08:53:01.836Z,1.72
2018-06-24T08:55:31.223Z,1.62
2018-06-24T08:57:58.591Z,1.90
2018-06-24T09:00:25.831Z,1.60
2018-06-24T09:02:53.071Z,1.37
2018-06-24T09:05:20.401Z,1.57
2018-06-24T09:07:47.752Z,1.90
2018-06-24T09:10:17.215Z,1.72
2018-06-24T09:12:44.462Z,1.52
2018-06-24T09:15:12.313Z,1.55
2018-06-24T09:17:40.992Z,1.80
2018-06-24T09:20:09.873Z,1.95
2018-06-24T09:22:37.639Z,2.10
2018-06-24T09:25:05.319Z,1.90
2018-06-24T09:27:32.874Z,2.12
2018-06-24T09:30:00.175Z,1.90
2018-06-24T09:32:27.614Z,1.90
2018-06-24T09:34:55.131Z,1.90
2018-06-24T09:37:23.344Z,1.80
2018-06-24T09:39:50.635Z,1.87
2018-06-24T09:42:18.010Z,2.05
2018-06-24T09:44:45.310Z,1.95
2018-06-24T09:47:12.570Z,1.90
2018-06-24T09:49:39.891Z,2.15
2018-06-24T09:52:07.231Z,1.62
2018-06-24T09:54:34.584Z,2.15
2018-06-24T09:57:02.419Z,2.15
2018-06-24T09:59:29.653Z,1.80
2018-06-24T10:02:00.966Z,2.12
2018-06-24T10:04:28.197Z,1.80
2018-06-24T10:06:55.475Z,2.35
2018-06-24T10:15:09.105Z,2.33
2018-06-24T10:17:36.436Z,2.10
2018-06-24T10:20:03.824Z,2.17
2018-06-24T10:23:01.837Z,2.40
2018-06-24T10:25:29.147Z,2.05
2018-06-24T10:27:56.440Z,2.05
2018-06-24T10:30:40.976Z,2.00
2018-06-24T10:33:12.175Z,2.02
2018-06-24T10:35:40.177Z,2.00
2018-06-24T10:38:08.060Z,1.87
2018-06-24T10:40:35.452Z,2.12
2018-06-24T10:43:02.719Z,2.10
2018-06-24T10:45:29.979Z,1.85
2018-06-24T10:47:59.744Z,2.10
2018-06-24T10:50:27.223Z,2.05
2018-06-24T10:52:54.515Z,1.90
2018-06-24T10:55:22.167Z,2.00
2018-06-24T10:58:01.283Z,1.82
2018-06-24T11:00:30.787Z,1.72
2018-06-24T11:02:58.067Z,1.80
2018-06-24T11:05:25.304Z,1.82
2018-06-24T11:07:56.447Z,1.80
2018-06-24T11:10:31.234Z,1.82
2018-06-24T11:16:48.703Z,2.05
2018-06-24T11:19:16.039Z,1.80
2018-06-24T11:21:44.246Z,2.30
2018-06-24T11:24:11.546Z,1.70
2018-06-24T11:26:38.839Z,1.45
2018-06-24T11:29:06.107Z,1.40
2018-06-24T11:31:40.068Z,1.70
2018-06-24T11:34:07.382Z,1.87
2018-06-24T11:36:34.594Z,1.50
2018-06-24T11:39:01.900Z,1.50
2018-06-24T11:41:29.134Z,1.60
2018-06-24T11:43:59.076Z,1.80
2018-06-24T11:46:26.425Z,1.80
2018-06-24T11:48:53.709Z,2.00
2018-06-24T11:51:20.976Z,2.00
2018-06-24T11:53:48.223Z,2.05
2018-06-24T11:56:16.304Z,1.67
2018-06-24T11:58:43.572Z,1.90
2018-06-24T12:01:10.811Z,1.90
2018-06-24T12:03:38.091Z,2.12
2018-06-24T12:06:05.392Z,2.15
2018-06-24T12:08:32.655Z,2.62
2018-06-24T12:10:59.931Z,2.40
2018-06-24T12:13:27.216Z,2.10
2018-06-24T12:15:54.453Z,2.05
2018-06-24T12:18:21.744Z,2.05
2018-06-24T12:20:49.097Z,2.37
2018-06-24T12:23:16.360Z,2.20
2018-06-24T12:25:43.665Z,2.00
2018-06-24T12:28:10.956Z,2.02
2018-06-24T12:30:38.205Z,1.82
2018-06-24T12:33:11.810Z,1.70
2018-06-24T12:35:39.069Z,2.10
2018-06-24T12:38:06.359Z,1.95
2018-06-24T12:40:33.910Z,2.30
2018-06-24T12:43:02.831Z,2.55
2018-06-24T12:45:30.299Z,2.22
2018-06-24T12:47:57.583Z,1.98
2018-06-24T12:50:24.853Z,2.30
2018-06-24T12:52:52.097Z,3.08
2018-06-24T12:55:19.434Z,3.35
2018-06-24T12:57:46.871Z,2.60
2018-06-24T13:00:26.909Z,2.77
2018-06-24T13:06:08.951Z,3.12
2018-06-24T13:08:36.215Z,3.10
2018-06-24T13:14:10.941Z,2.22
2018-06-24T13:16:38.158Z,1.50
2018-06-24T13:19:05.451Z,3.08
2018-06-24T13:21:37.146Z,1.90
2018-06-24T13:24:27.580Z,1.70
2018-06-24T13:27:07.453Z,1.90
2018-06-24T13:29:42.439Z,1.90
2018-06-24T13:32:09.845Z,1.70
2018-06-24T13:34:37.056Z,1.92
2018-06-24T13:37:04.391Z,1.70
2018-06-24T13:39:31.638Z,1.92
2018-06-24T13:41:58.930Z,1.70
2018-06-24T13:44:28.899Z,1.52
2018-06-24T13:46:56.179Z,1.67
2018-06-24T13:49:23.448Z,1.80
2018-06-24T13:51:50.751Z,1.70
2018-06-24T13:54:18.230Z,1.70
2018-06-24T13:56:45.574Z,1.82
2018-06-24T13:59:12.908Z,1.60
2018-06-24T14:01:40.207Z,1.60
2018-06-24T14:04:09.511Z,1.67
2018-06-24T14:06:36.875Z,1.92
2018-06-24T14:09:10.592Z,1.85
2018-06-24T14:11:38.176Z,1.70
2018-06-24T14:14:10.389Z,1.70
2018-06-24T14:16:37.864Z,1.77
2018-06-24T14:19:05.243Z,1.70
2018-06-24T14:21:32.617Z,2.12
2018-06-24T14:24:00.625Z,1.95
2018-06-24T14:26:28.027Z,1.85
2018-06-24T14:28:55.356Z,1.70
2018-06-24T14:31:22.648Z,1.80
2018-06-24T14:33:49.927Z,2.00
2018-06-24T14:36:17.169Z,1.92
2018-06-24T14:38:44.636Z,1.92
2018-06-24T14:41:11.982Z,1.95
2018-06-24T14:43:41.709Z,2.00
2018-06-24T14:46:08.995Z,2.30
2018-06-24T14:48:36.703Z,2.15
2018-06-24T14:51:04.053Z,2.20
2018-06-24T14:53:31.543Z,2.20
2018-06-24T14:55:58.852Z,2.30
2018-06-24T14:58:49.683Z,3.17
2018-06-24T15:01:16.975Z,2.90
2018-06-24T15:03:45.121Z,2.40
2018-06-24T15:06:12.405Z,2.50
2018-06-24T15:08:39.686Z,3.00
2018-06-24T15:11:07.015Z,2.50
2018-06-24T15:13:34.291Z,2.52
2018-06-24T15:16:01.555Z,2.60
2018-06-24T15:18:42.037Z,3.10
2018-06-24T15:21:09.832Z,3.12
2018-06-24T15:23:37.475Z,2.70
2018-06-24T15:26:20.564Z,2.85
2018-06-24T15:28:48.271Z,2.95
2018-06-24T15:31:15.985Z,2.72
2018-06-24T15:34:15.274Z,3.20
2018-06-24T15:36:44.263Z,2.83
2018-06-24T15:41:58.699Z,3.33
2018-06-24T15:44:25.963Z,3.50
2018-06-24T15:46:53.227Z,3.45
2018-06-24T15:49:20.527Z,3.70
2018-06-24T15:51:52.065Z,3.75
2018-06-24T15:54:19.855Z,3.60
2018-06-24T15:56:47.280Z,3.50
2018-06-24T15:59:14.887Z,4.15
2018-06-24T16:01:42.183Z,4.15
2018-06-24T16:04:12.662Z,4.17
2018-06-24T16:06:39.996Z,3.72
2018-06-24T16:09:36.010Z,4.05
2018-06-24T16:12:11.600Z,4.40
2018-06-24T16:14:38.964Z,4.17
2018-06-24T16:17:07.031Z,4.20
2018-06-24T16:19:34.456Z,4.40
2018-06-24T16:22:09.335Z,4.35
2018-06-24T16:24:42.578Z,4.10
2018-06-24T16:27:09.872Z,5.00
2018-06-24T16:29:39.386Z,4.87
2018-06-24T16:32:06.768Z,5.28
2018-06-24T16:34:34.093Z,5.42
2018-06-24T16:37:11.643Z,5.80
2018-06-24T16:39:38.949Z,6.40
2018-06-24T16:42:06.283Z,6.37
2018-06-24T16:44:40.961Z,5.80
2018-06-24T16:47:08.272Z,5.45
2018-06-24T16:49:42.078Z,5.37
2018-06-24T16:52:09.382Z,6.00
2018-06-24T16:54:36.734Z,5.85
2018-06-24T16:57:04.816Z,6.12
2018-06-24T16:59:34.996Z,5.80
2018-06-24T17:02:03.129Z,6.12
2018-06-24T17:04:40.631Z,6.15
2018-06-24T17:07:08.048Z,5.90
2018-06-24T17:09:35.331Z,5.90
2018-06-24T17:12:02.648Z,5.60
2018-06-24T17:14:32.196Z,5.47
2018-06-24T17:19:52.685Z,5.67
2018-06-24T17:22:30.089Z,5.70
2018-06-24T17:24:57.516Z,6.28
2018-06-24T17:27:24.800Z,5.78
2018-06-24T17:29:52.594Z,4.83
2018-06-24T17:32:25.248Z,4.67
2018-06-24T17:34:52.543Z,4.90
2018-06-24T17:37:19.881Z,4.35
2018-06-24T17:39:47.227Z,4.53
2018-06-24T17:42:14.507Z,5.20
2018-06-24T17:44:42.303Z,4.30
2018-06-24T17:47:11.275Z,4.28
2018-06-24T17:49:38.616Z,3.52
2018-06-24T17:52:05.910Z,4.10
2018-06-24T17:54:33.206Z,3.90
2018-06-24T17:57:01.555Z,4.10
2018-06-24T17:59:28.883Z,3.80
2018-06-24T18:01:56.152Z,3.87
2018-06-24T18:04:23.576Z,3.17
2018-06-24T18:06:52.541Z,4.03
2018-06-24T18:09:31.097Z,3.80
2018-06-24T18:11:58.537Z,6.50
2018-06-24T18:14:26.100Z,5.97
2018-06-24T18:16:53.515Z,4.60
2018-06-24T18:19:20.798Z,8.50
2018-06-24T18:21:48.339Z,3.12
2018-06-24T18:24:15.715Z,3.30
2018-06-24T18:26:43.049Z,2.87
2018-06-24T18:29:11.086Z,2.95
2018-06-24T18:31:38.413Z,2.55
2018-06-24T18:36:58.217Z,2.70
2018-06-24T18:39:25.511Z,3.50
2018-06-24T18:41:52.808Z,3.00
2018-06-24T18:44:50.587Z,2.77
2018-06-24T18:47:22.437Z,2.98
2018-06-24T18:49:49.818Z,2.90
2018-06-24T18:52:17.103Z,3.10
2018-06-24T18:54:51.435Z,3.00
2018-06-24T18:57:18.749Z,3.08
2018-06-24T18:59:49.689Z,3.23
2018-06-24T19:02:17.143Z,2.90
2018-06-24T19:04:44.427Z,2.75
2018-06-24T19:07:15.421Z,3.00
2018-06-24T19:09:42.680Z,2.90
2018-06-24T19:12:10.743Z,2.75
2018-06-24T19:14:38.015Z,3.15
2018-06-24T19:17:12.312Z,2.77
2018-06-24T19:19:42.643Z,3.00
2018-06-24T19:22:10.035Z,3.30
2018-06-24T19:24:37.440Z,3.62
2018-06-24T19:27:04.920Z,3.05
2018-06-24T19:29:32.330Z,2.72
2018-06-24T20:14:13.099Z,3.40
2018-06-24T20:16:41.199Z,3.50
2018-06-24T20:19:08.534Z,3.35
2018-06-24T20:21:36.783Z,2.85
2018-06-24T20:24:04.130Z,3.03
2018-06-24T20:26:31.406Z,2.97
2018-06-24T20:28:58.738Z,2.90
2018-06-24T20:31:26.016Z,2.47
2018-06-24T20:33:53.296Z,2.35
2018-06-24T20:36:20.547Z,3.20
2018-06-24T20:38:50.093Z,3.17
2018-06-24T20:41:17.424Z,3.20
2018-06-24T20:43:44.700Z,3.20
2018-06-24T20:46:11.975Z,3.40
2018-06-24T20:48:39.263Z,3.43
2018-06-24T20:51:06.992Z,3.40
2018-06-24T20:53:34.320Z,3.30
2018-06-24T20:56:01.689Z,2.58
2018-06-24T20:58:28.963Z,2.73
2018-06-24T21:00:56.379Z,2.47
2018-06-24T21:03:23.651Z,2.10
2018-06-24T21:05:50.956Z,2.57
2018-06-24T21:08:18.234Z,2.00
2018-06-24T21:10:45.528Z,2.10
2018-06-24T21:13:12.787Z,2.60
2018-06-24T21:15:40.108Z,2.13
2018-06-24T21:18:07.388Z,2.20
2018-06-24T21:20:43.048Z,2.53
2018-06-24T21:23:10.411Z,2.40
2018-06-24T21:25:38.106Z,1.93
2018-06-24T21:28:05.379Z,2.40
2018-06-24T21:30:32.687Z,2.27
2018-06-24T21:32:59.929Z,2.27
2018-06-24T21:35:27.240Z,2.00
2018-06-24T21:37:54.471Z,1.80
2018-06-24T21:40:26.694Z,2.30
2018-06-24T21:42:58.176Z,2.20
2018-06-24T21:45:25.509Z,2.00
2018-06-24T21:47:52.786Z,2.27
2018-06-24T21:50:20.047Z,2.10
2018-06-24T21:52:47.379Z,1.83
2018-06-24T21:58:12.272Z,1.80
2018-06-24T22:00:42.565Z,2.00
2018-06-24T22:03:09.839Z,2.00
2018-06-24T22:05:37.134Z,2.40
2018-06-24T22:08:04.827Z,2.50
2018-06-24T22:10:32.118Z,2.53
2018-06-24T22:16:16.882Z,2.30
2018-06-24T22:18:44.680Z,2.30
2018-06-24T22:21:31.792Z,2.37
2018-06-24T22:23:59.166Z,2.40
2018-06-24T22:26:26.608Z,2.73
2018-06-24T22:28:53.857Z,2.33
2018-06-24T22:31:21.138Z,2.30
2018-06-24T22:33:48.387Z,2.50
2018-06-24T22:36:15.828Z,2.40
2018-06-24T22:39:06.548Z,2.70
2018-06-24T22:41:33.860Z,2.43
2018-06-24T22:44:01.298Z,2.40
2018-06-24T22:46:28.631Z,2.30
2018-06-24T22:49:30.858Z,2.77
2018-06-24T22:51:58.154Z,1.90
2018-06-24T22:54:25.439Z,2.10
2018-06-24T22:56:52.772Z,2.33
2018-06-24T23:02:12.083Z,2.20
2018-06-24T23:04:39.340Z,2.10
2018-06-24T23:07:20.928Z,2.37
2018-06-24T23:09:58.942Z,2.30
2018-06-24T23:12:42.730Z,2.00
2018-06-24T23:15:10.712Z,2.50
2018-06-24T23:17:38.480Z,2.30
2018-06-24T23:20:13.541Z,2.10
2018-06-24T23:22:40.779Z,2.03
2018-06-24T23:25:14.517Z,2.27
2018-06-24T23:28:37.122Z,1.90
2018-06-24T23:31:04.733Z,2.10
2018-06-24T23:33:32.379Z,1.93
2018-06-24T23:35:59.764Z,2.27
2018-06-24T23:38:27.055Z,1.80
2018-06-24T23:40:54.339Z,1.90
2018-06-24T23:43:25.433Z,2.03
2018-06-24T23:45:52.832Z,1.90
2018-06-24T23:48:21.865Z,2.30
2018-06-24T23:50:49.267Z,1.97
2018-06-24T23:53:16.555Z,2.37
2018-06-24T23:55:43.919Z,2.00
2018-06-24T23:58:13.351Z,2.07
